Time;durP1;ratioP1;P1;durP2;ratioP2;P2;SDS_P1;SDS_P2;PMS_P1;PMS_P2;Temp;Humidity;BMP_temperature;BMP_pressure;BME280_temperature;BME280_humidity;BME280_pressure;Samples;Min_cycle;Max_cycle;Signal;HPM_P1;HPM_P2
2023/04/18 00:00:22;;;;;;;12.90;9.63;;;9.20;82.10;;;;;;6219001;23;20395;-70
2023/04/18 00:02:50;;;;;;;16.50;11.37;;;9.20;83.40;;;;;;6219800;23;20349;-70
2023/04/18 00:05:18;;;;;;;13.50;9.00;;;9.10;83.50;;;;;;6219381;23;20361;-70
2023/04/18 00:07:44;;;;;;;13.90;10.13;;;9.10;84.40;;;;;;6219390;23;20444;-69
2023/04/18 00:10:10;;;;;;;13.73;10.03;;;9.00;84.70;;;;;;6219298;23;20774;-70
2023/04/18 00:12:35;;;;;;;12.60;8.90;;;9.00;84.80;;;;;;6219381;23;20180;-71
2023/04/18 00:15:03;;;;;;;11.00;8.87;;;9.00;85.40;;;;;;6219361;23;20212;-71
2023/04/18 00:17:30;;;;;;;11.13;9.43;;;9.00;85.80;;;;;;6219262;23;20484;-71
2023/04/18 00:19:57;;;;;;;20.27;9.53;;;8.90;85.70;;;;;;6218606;23;20424;-70
2023/04/18 00:22:23;;;;;;;16.17;10.43;;;8.90;85.90;;;;;;6219381;23;20467;-69
2023/04/18 00:24:50;;;;;;;14.77;9.63;;;8.90;85.30;;;;;;6219040;23;20361;-70
2023/04/18 00:27:17;;;;;;;13.80;10.40;;;9.00;83.10;;;;;;6219047;23;20674;-68
2023/04/18 00:29:43;;;;;;;13.00;10.27;;;9.00;82.70;;;;;;6218120;23;20452;-70
2023/04/18 00:32:08;;;;;;;12.60;9.43;;;9.00;82.80;;;;;;6219201;23;20357;-70
2023/04/18 00:34:34;;;;;;;11.83;9.63;;;8.90;82.70;;;;;;6192917;23;20134;-70
2023/04/18 00:37:00;;;;;;;10.57;9.27;;;9.00;81.00;;;;;;6220349;23;20350;-71
2023/04/18 00:39:26;;;;;;;14.80;9.53;;;9.00;80.00;;;;;;6192685;23;20162;-69
2023/04/18 00:41:52;;;;;;;13.60;9.43;;;8.90;80.00;;;;;;6194133;23;20146;-70
2023/04/18 00:44:17;;;;;;;12.20;9.70;;;8.80;81.10;;;;;;6193504;23;20404;-71
2023/04/18 00:46:43;;;;;;;14.37;9.60;;;8.80;81.50;;;;;;6219468;23;20139;-71
2023/04/18 00:49:10;;;;;;;11.33;9.70;;;8.70;81.90;;;;;;6218663;23;20172;-70
2023/04/18 00:51:36;;;;;;;15.73;9.77;;;8.60;82.70;;;;;;6219330;23;20150;-70
2023/04/18 00:54:04;;;;;;;11.20;9.33;;;8.60;83.70;;;;;;6219118;23;20416;-70
2023/04/18 00:56:30;;;;;;;11.27;9.13;;;8.50;85.30;;;;;;6219187;23;20761;-71
2023/04/18 00:58:57;;;;;;;13.03;9.17;;;8.60;84.60;;;;;;6219122;23;20793;-74
2023/04/18 01:01:23;;;;;;;10.40;8.93;;;8.50;84.80;;;;;;6219277;23;20420;-70
2023/04/18 01:03:49;;;;;;;11.47;8.00;;;8.50;85.80;;;;;;6218997;23;20424;-72
2023/04/18 01:06:14;;;;;;;10.10;7.83;;;8.40;86.10;;;;;;6218897;23;20134;-71
2023/04/18 01:08:41;;;;;;;11.60;8.20;;;8.30;85.80;;;;;;6218612;23;20206;-68
2023/04/18 01:11:06;;;;;;;10.87;9.30;;;8.30;85.40;;;;;;6219070;23;20134;-69
2023/04/18 01:13:32;;;;;;;11.70;8.77;;;8.30;83.90;;;;;;6219709;23;20753;-69
2023/04/18 01:15:57;;;;;;;10.60;8.40;;;8.20;85.20;;;;;;6194948;23;20161;-71
2023/04/18 01:18:24;;;;;;;13.30;8.30;;;8.20;84.90;;;;;;6223246;23;20126;-70
2023/04/18 01:20:51;;;;;;;13.73;7.63;;;8.20;84.40;;;;;;6220093;23;20173;-70
2023/04/18 01:23:19;;;;;;;13.53;8.80;;;8.20;85.00;;;;;;6192546;23;20393;-69
2023/04/18 01:25:46;;;;;;;11.20;8.57;;;8.20;84.50;;;;;;6192475;23;20373;-70
2023/04/18 01:28:13;;;;;;;10.23;8.10;;;8.10;84.50;;;;;;6192309;23;20376;-69
2023/04/18 01:30:39;;;;;;;12.17;8.27;;;8.00;85.40;;;;;;6218345;23;20385;-70
2023/04/18 01:33:05;;;;;;;12.20;8.40;;;8.00;85.60;;;;;;6218731;23;20369;-69
2023/04/18 01:35:32;;;;;;;10.47;8.47;;;7.90;86.10;;;;;;6219120;23;20746;-69
2023/04/18 01:37:58;;;;;;;16.03;8.77;;;7.90;86.50;;;;;;6218769;23;20365;-70
2023/04/18 01:40:24;;;;;;;9.60;7.10;;;7.90;85.90;;;;;;6191595;23;20517;-70
2023/04/18 01:42:50;;;;;;;13.43;9.40;;;7.80;86.30;;;;;;6218786;23;20666;-70
2023/04/18 01:45:16;;;;;;;12.20;8.23;;;7.80;86.10;;;;;;6218843;23;20412;-71
2023/04/18 01:47:42;;;;;;;10.00;8.17;;;7.80;86.20;;;;;;6192629;23;20229;-69
2023/04/18 01:50:11;;;;;;;10.80;7.20;;;7.80;86.90;;;;;;6191736;23;20393;-69
2023/04/18 01:52:37;;;;;;;9.03;7.60;;;7.70;87.50;;;;;;6218942;23;20702;-69
2023/04/18 01:55:02;;;;;;;12.40;8.60;;;7.60;88.20;;;;;;6218685;23;20362;-70
2023/04/18 01:57:29;;;;;;;11.73;7.30;;;7.70;87.80;;;;;;6192176;23;20388;-69
2023/04/18 01:59:55;;;;;;;15.70;8.00;;;7.60;87.90;;;;;;6191491;23;20421;-69
2023/04/18 02:02:20;;;;;;;10.07;8.63;;;7.60;88.00;;;;;;6192001;23;20371;-69
2023/04/18 02:04:46;;;;;;;10.80;8.17;;;7.60;89.00;;;;;;6192182;23;20548;-69
2023/04/18 02:07:12;;;;;;;11.90;8.20;;;7.50;89.60;;;;;;6192108;23;20416;-70
2023/04/18 02:09:37;;;;;;;13.30;8.13;;;7.50;89.30;;;;;;6218607;23;20597;-70
2023/04/18 02:12:03;;;;;;;12.43;8.50;;;7.40;90.10;;;;;;6192178;23;20443;-68
2023/04/18 02:14:30;;;;;;;11.27;7.90;;;7.30;90.50;;;;;;6192284;23;20225;-69
2023/04/18 02:16:59;;;;;;;12.23;7.87;;;7.30;91.00;;;;;;6218542;23;20138;-70
2023/04/18 02:19:25;;;;;;;9.30;7.63;;;7.30;91.40;;;;;;6191675;23;20452;-70
2023/04/18 02:21:51;;;;;;;12.00;8.20;;;7.20;91.50;;;;;;6191979;23;20161;-69
2023/04/18 02:24:16;;;;;;;9.87;7.17;;;7.20;91.70;;;;;;6192100;23;20174;-69
2023/04/18 02:26:43;;;;;;;14.13;7.97;;;7.10;92.00;;;;;;6218635;23;20373;-70
2023/04/18 02:29:09;;;;;;;10.33;7.93;;;7.10;92.40;;;;;;6193418;23;20177;-71
2023/04/18 02:31:38;;;;;;;11.00;8.83;;;7.10;92.80;;;;;;6218867;23;20373;-68
2023/04/18 02:34:05;;;;;;;11.53;7.50;;;7.10;93.00;;;;;;6218381;23;20618;-70
2023/04/18 02:36:30;;;;;;;11.87;8.07;;;7.00;93.10;;;;;;6218171;23;20393;-70
2023/04/18 02:38:56;;;;;;;14.30;8.57;;;7.00;93.40;;;;;;6217824;23;20240;-69
2023/04/18 02:41:22;;;;;;;11.40;8.20;;;6.90;93.90;;;;;;6192120;23;20153;-70
2023/04/18 02:43:47;;;;;;;9.40;6.67;;;6.90;94.30;;;;;;6218543;23;20130;-70
2023/04/18 02:46:14;;;;;;;13.43;8.90;;;6.80;94.70;;;;;;6197749;23;20149;-71
2023/04/18 02:48:41;;;;;;;13.53;9.30;;;6.80;94.90;;;;;;6191209;23;20377;-69
2023/04/18 02:51:08;;;;;;;11.03;7.57;;;6.90;94.80;;;;;;6191434;23;20377;-70
2023/04/18 02:53:36;;;;;;;12.83;7.50;;;6.90;94.40;;;;;;6191400;23;20383;-70
2023/04/18 02:56:02;;;;;;;13.67;7.97;;;6.90;94.60;;;;;;6191356;23;20400;-70
2023/04/18 02:58:47;;;;;;;10.93;7.20;;;6.80;94.80;;;;;;6190961;23;20491;-69
2023/04/18 03:01:33;;;;;;;7.90;7.00;;;6.80;95.30;;;;;;6218898;23;20387;-70
2023/04/18 03:04:06;;;;;;;9.67;8.53;;;6.70;95.50;;;;;;6220926;23;20357;-70
2023/04/18 03:06:37;;;;;;;9.80;7.27;;;6.70;95.90;;;;;;6194595;23;20596;-69
2023/04/18 03:09:03;;;;;;;9.93;7.17;;;6.60;96.00;;;;;;6192745;23;20471;-69
2023/04/18 03:11:31;;;;;;;8.17;7.30;;;6.60;96.70;;;;;;6191723;23;20178;-68
2023/04/18 03:13:57;;;;;;;12.00;9.40;;;6.50;96.60;;;;;;6191238;23;20626;-69
2023/04/18 03:16:33;;;;;;;17.70;9.37;;;6.50;97.40;;;;;;6191542;23;20393;-70
2023/04/18 03:19:00;;;;;;;14.10;9.07;;;6.60;97.30;;;;;;6191073;23;20802;-70
2023/04/18 03:21:26;;;;;;;9.93;8.47;;;6.60;97.30;;;;;;6191387;23;20373;-69
2023/04/18 03:23:52;;;;;;;14.73;8.70;;;6.60;97.30;;;;;;6191864;23;20381;-69
2023/04/18 03:26:20;;;;;;;12.67;8.97;;;6.60;97.70;;;;;;6191281;23;20142;-68
2023/04/18 03:28:45;;;;;;;10.47;9.30;;;6.70;97.50;;;;;;6217283;23;20694;-70
2023/04/18 03:31:11;;;;;;;12.40;9.00;;;6.70;97.50;;;;;;6190481;23;20420;-69
2023/04/18 03:33:41;;;;;;;12.10;8.60;;;6.60;97.50;;;;;;6191226;23;20193;-69
2023/04/18 03:36:10;;;;;;;12.70;9.30;;;6.60;97.80;;;;;;6190957;23;20517;-70
2023/04/18 03:38:39;;;;;;;9.80;8.47;;;6.60;98.10;;;;;;6191695;23;20626;-69
2023/04/18 03:41:04;;;;;;;12.70;9.37;;;6.60;98.30;;;;;;6191277;23;20659;-70
2023/04/18 03:43:33;;;;;;;11.83;10.27;;;6.60;98.80;;;;;;6143395;23;20380;-70
2023/04/18 03:45:59;;;;;;;11.90;9.07;;;6.60;98.90;;;;;;6190894;23;20369;-70
2023/04/18 03:48:25;;;;;;;12.83;9.20;;;6.50;99.10;;;;;;6193959;23;20150;-70
2023/04/18 03:50:51;;;;;;;14.20;10.30;;;6.50;99.50;;;;;;6220067;23;20361;-69
2023/04/18 03:53:17;;;;;;;11.83;9.03;;;6.50;99.90;;;;;;6193579;23;20654;-70
2023/04/18 03:55:42;;;;;;;13.03;9.80;;;6.40;99.90;;;;;;6194955;23;20199;-74
2023/04/18 03:58:10;;;;;;;13.13;8.80;;;6.50;99.90;;;;;;6193501;23;20179;-72
2023/04/18 04:00:37;;;;;;;13.40;8.93;;;6.40;99.90;;;;;;6191701;23;20726;-74
2023/04/18 04:03:07;;;;;;;15.63;8.57;;;6.30;99.90;;;;;;6193028;23;20917;-71
2023/04/18 04:05:32;;;;;;;11.07;9.00;;;6.30;99.90;;;;;;6221752;23;20361;-71
2023/04/18 04:07:58;;;;;;;10.30;8.23;;;6.30;99.90;;;;;;6222299;23;20384;-74
2023/04/18 04:10:23;;;;;;;18.13;10.10;;;6.30;99.90;;;;;;6223595;23;20164;-75
2023/04/18 04:12:50;;;;;;;12.43;8.43;;;6.20;99.90;;;;;;6197539;23;20186;-70
2023/04/18 04:15:16;;;;;;;10.40;7.83;;;6.30;99.90;;;;;;6198054;23;20813;-69
2023/04/18 04:17:50;;;;;;;13.43;8.80;;;6.30;99.90;;;;;;6196342;23;20373;-70
2023/04/18 04:20:21;;;;;;;13.87;8.73;;;6.20;99.90;;;;;;6195334;23;20877;-69
2023/04/18 04:22:47;;;;;;;12.17;7.77;;;6.20;99.90;;;;;;6171710;23;20447;-70
2023/04/18 04:25:14;;;;;;;10.53;7.97;;;6.20;99.90;;;;;;6197125;23;20392;-70
2023/04/18 04:27:41;;;;;;;15.20;9.17;;;6.20;99.90;;;;;;6196734;23;20149;-72
2023/04/18 04:30:09;;;;;;;7.93;7.13;;;6.20;99.90;;;;;;6195941;23;20407;-71
2023/04/18 04:32:37;;;;;;;15.47;11.40;;;6.30;99.90;;;;;;6195675;23;20388;-71
2023/04/18 04:35:05;;;;;;;14.93;10.57;;;6.40;99.90;;;;;;6223672;23;20354;-70
2023/04/18 04:37:32;;;;;;;12.13;10.13;;;6.40;99.90;;;;;;6197180;23;20785;-70
2023/04/18 04:40:18;;;;;;;12.10;10.17;;;6.60;99.90;;;;;;6220545;23;20507;-72
2023/04/18 04:42:48;;;;;;;15.47;10.07;;;6.70;99.90;;;;;;6196900;23;20369;-72
2023/04/18 04:45:20;;;;;;;15.80;11.70;;;6.80;99.90;;;;;;6195921;23;20740;-74
2023/04/18 04:47:46;;;;;;;11.33;8.73;;;6.90;99.90;;;;;;6222554;23;20411;-70
2023/04/18 04:50:14;;;;;;;8.70;7.63;;;7.00;99.90;;;;;;6197288;23;20476;-70
2023/04/18 04:52:41;;;;;;;11.00;7.77;;;7.00;99.90;;;;;;6196787;23;20399;-73
2023/04/18 04:55:07;;;;;;;9.70;7.67;;;7.00;99.90;;;;;;6223614;23;20450;-71
2023/04/18 04:57:33;;;;;;;13.10;9.10;;;7.10;99.90;;;;;;6198477;23;20384;-71
2023/04/18 05:00:00;;;;;;;15.63;10.97;;;7.10;99.90;;;;;;6223220;23;20424;-71
2023/04/18 05:02:26;;;;;;;15.97;12.00;;;7.10;99.90;;;;;;6198232;23;20385;-70
2023/04/18 05:04:52;;;;;;;15.03;11.23;;;7.20;99.90;;;;;;6224268;23;20627;-70
2023/04/18 05:07:17;;;;;;;16.53;10.63;;;7.30;99.90;;;;;;6224390;23;20524;-72
2023/04/18 05:09:43;;;;;;;14.13;11.23;;;7.30;99.90;;;;;;6221255;23;20211;-72
2023/04/18 05:12:08;;;;;;;13.40;10.97;;;7.40;99.90;;;;;;6223410;23;20196;-69
2023/04/18 05:14:35;;;;;;;15.10;10.20;;;7.40;99.90;;;;;;6224334;23;20135;-71
2023/04/18 05:17:02;;;;;;;13.83;10.87;;;7.50;99.90;;;;;;6222806;23;20202;-72
2023/04/18 05:19:28;;;;;;;15.83;11.37;;;7.60;99.90;;;;;;6223468;23;20543;-70
2023/04/18 05:21:54;;;;;;;16.60;10.70;;;7.70;99.90;;;;;;6223090;23;20389;-69
2023/04/18 05:24:20;;;;;;;12.47;10.17;;;7.70;99.90;;;;;;6176200;23;20142;-71
2023/04/18 05:26:45;;;;;;;13.40;11.37;;;7.80;99.80;;;;;;6227161;23;20353;-71
2023/04/18 05:29:11;;;;;;;14.17;12.20;;;7.90;99.40;;;;;;6227126;23;20166;-72
2023/04/18 05:31:36;;;;;;;12.10;9.67;;;8.00;98.50;;;;;;6224812;23;20138;-73
2023/04/18 05:34:02;;;;;;;14.60;10.70;;;8.10;98.30;;;;;;6225767;23;20213;-74
2023/04/18 05:36:27;;;;;;;14.13;10.40;;;8.10;98.20;;;;;;6226326;23;20169;-73
2023/04/18 05:38:53;;;;;;;13.47;10.27;;;8.20;98.30;;;;;;6224595;23;20165;-73
2023/04/18 05:41:18;;;;;;;14.87;12.20;;;8.30;97.90;;;;;;6226324;23;20134;-74
2023/04/18 05:43:44;;;;;;;12.07;9.40;;;8.40;97.30;;;;;;6227536;23;20197;-73
2023/04/18 05:46:11;;;;;;;14.43;10.53;;;8.50;97.00;;;;;;6225885;23;20130;-74
2023/04/18 05:48:36;;;;;;;15.03;12.03;;;8.60;95.20;;;;;;6226252;23;20365;-73
2023/04/18 05:51:03;;;;;;;15.13;12.10;;;8.60;94.70;;;;;;6202996;23;20411;-74
2023/04/18 05:53:29;;;;;;;14.70;11.97;;;8.60;94.70;;;;;;6227989;23;20219;-73
2023/04/18 05:55:56;;;;;;;15.23;11.60;;;8.80;93.90;;;;;;6225345;23;20392;-73
2023/04/18 05:58:22;;;;;;;16.17;11.47;;;8.80;94.40;;;;;;6226940;23;20146;-72
2023/04/18 06:00:47;;;;;;;17.10;11.03;;;8.90;94.50;;;;;;6225888;23;20853;-73
2023/04/18 06:03:13;;;;;;;12.40;10.83;;;9.10;93.50;;;;;;6227218;23;20123;-73
2023/04/18 06:05:39;;;;;;;15.33;10.73;;;9.40;91.30;;;;;;6227228;23;20134;-74
2023/04/18 06:08:06;;;;;;;15.33;9.83;;;9.50;89.70;;;;;;6227094;23;20157;-73
2023/04/18 06:10:32;;;;;;;13.53;10.83;;;9.40;90.80;;;;;;6228409;23;20405;-74
2023/04/18 06:12:58;;;;;;;17.00;10.90;;;9.50;90.50;;;;;;6178728;23;20421;-74
2023/04/18 06:15:23;;;;;;;12.27;10.37;;;9.50;90.00;;;;;;6202205;23;20397;-75
2023/04/18 06:17:49;;;;;;;13.10;11.10;;;9.50;87.60;;;;;;6203984;23;20138;-74
2023/04/18 06:20:15;;;;;;;15.30;11.23;;;9.60;86.90;;;;;;6228329;23;20217;-74
2023/04/18 06:22:41;;;;;;;13.53;9.80;;;9.60;86.50;;;;;;6230709;23;20468;-74
2023/04/18 06:25:08;;;;;;;15.40;11.13;;;9.60;87.60;;;;;;6231013;23;20134;-74
2023/04/18 06:27:35;;;;;;;14.00;10.97;;;9.70;86.00;;;;;;6232897;23;20192;-74
2023/04/18 06:30:01;;;;;;;17.13;11.43;;;9.70;85.00;;;;;;6226145;23;20484;-75
2023/04/18 06:32:27;;;;;;;13.93;11.53;;;9.80;83.20;;;;;;6227625;23;20357;-73
2023/04/18 06:34:52;;;;;;;12.77;10.80;;;9.90;83.50;;;;;;6202292;23;20149;-75
2023/04/18 06:37:18;;;;;;;15.87;11.13;;;10.10;78.50;;;;;;6201381;23;20503;-76
2023/04/18 06:39:44;;;;;;;17.73;10.80;;;10.30;77.60;;;;;;6201026;23;20240;-73
2023/04/18 06:42:10;;;;;;;12.63;10.53;;;10.30;73.70;;;;;;6225872;23;20237;-74
2023/04/18 06:44:43;;;;;;;11.80;9.87;;;10.40;73.10;;;;;;6205239;23;20762;-75
2023/04/18 06:47:09;;;;;;;11.70;8.63;;;10.40;73.70;;;;;;6228742;23;20368;-76
2023/04/18 06:49:34;;;;;;;13.00;9.37;;;10.30;74.40;;;;;;6231568;23;20631;-74
2023/04/18 06:52:00;;;;;;;15.73;10.97;;;10.20;75.80;;;;;;6207666;23;20381;-73
2023/04/18 06:54:26;;;;;;;12.47;10.20;;;10.10;73.70;;;;;;6205665;23;20150;-74
2023/04/18 06:56:52;;;;;;;13.40;8.40;;;10.00;74.70;;;;;;6230645;23;20130;-75
2023/04/18 06:59:20;;;;;;;10.90;9.67;;;9.90;78.30;;;;;;6201933;23;20194;-77
2023/04/18 07:01:46;;;;;;;13.10;9.57;;;10.00;74.70;;;;;;6176007;23;20444;-73
2023/04/18 07:04:12;;;;;;;12.23;8.90;;;10.10;72.40;;;;;;6227214;23;20395;-73
2023/04/18 07:06:37;;;;;;;13.00;8.40;;;10.10;71.80;;;;;;6233068;23;20357;-77
2023/04/18 07:09:04;;;;;;;11.60;8.87;;;10.20;72.20;;;;;;6228882;23;20200;-76
2023/04/18 07:11:30;;;;;;;13.13;8.90;;;10.10;73.00;;;;;;6166075;23;20190;-73
2023/04/18 07:13:55;;;;;;;10.53;9.30;;;10.20;70.40;;;;;;6167802;23;20446;-75
2023/04/18 07:16:21;;;;;;;12.90;8.50;;;10.30;70.30;;;;;;6166875;23;20151;-72
2023/04/18 07:18:47;;;;;;;9.90;8.90;;;10.50;69.40;;;;;;6168152;23;20177;-75
2023/04/18 07:21:12;;;;;;;9.33;8.33;;;10.60;67.30;;;;;;6143029;23;20166;-75
2023/04/18 07:23:38;;;;;;;9.90;8.03;;;10.70;65.90;;;;;;6169560;23;20135;-74
2023/04/18 07:26:04;;;;;;;10.70;8.50;;;10.80;64.80;;;;;;6144052;23;20131;-75
2023/04/18 07:28:32;;;;;;;10.40;7.53;;;10.90;64.40;;;;;;6168256;23;20132;-75
2023/04/18 07:30:58;;;;;;;12.60;8.83;;;10.90;63.40;;;;;;6143326;23;20393;-72
2023/04/18 07:33:24;;;;;;;13.60;9.17;;;10.90;63.90;;;;;;6169881;23;20161;-75
2023/04/18 07:35:51;;;;;;;10.73;7.50;;;11.10;63.10;;;;;;6141311;23;20152;-73
2023/04/18 07:38:17;;;;;;;12.70;8.70;;;11.00;63.60;;;;;;6167582;23;20367;-75
2023/04/18 07:40:54;;;;;;;11.83;9.30;;;11.00;64.10;;;;;;6168323;23;20501;-72
2023/04/18 07:43:20;;;;;;;12.67;9.00;;;11.00;62.60;;;;;;6167035;23;20170;-75
2023/04/18 07:45:46;;;;;;;9.97;6.70;;;11.00;62.30;;;;;;6169734;23;20351;-74
2023/04/18 07:48:12;;;;;;;8.83;7.60;;;10.90;63.10;;;;;;6168932;23;20147;-75
2023/04/18 07:50:38;;;;;;;9.90;7.57;;;10.90;63.60;;;;;;6169256;23;20167;-74
2023/04/18 07:53:03;;;;;;;11.87;7.97;;;11.00;63.50;;;;;;6170499;23;20355;-74
2023/04/18 07:55:29;;;;;;;10.53;7.30;;;11.10;64.00;;;;;;6170200;23;20396;-75
2023/04/18 07:57:55;;;;;;;9.50;7.37;;;11.00;65.00;;;;;;6144460;23;20158;-73
2023/04/18 08:00:20;;;;;;;8.93;6.97;;;11.20;63.20;;;;;;6167284;23;20418;-74
2023/04/18 08:02:46;;;;;;;10.83;7.63;;;11.20;62.30;;;;;;6143763;23;20222;-74
2023/04/18 08:05:12;;;;;;;8.83;6.90;;;11.30;61.70;;;;;;6170759;23;20139;-74
2023/04/18 08:07:37;;;;;;;9.40;7.10;;;11.30;61.60;;;;;;6172483;23;20143;-74
2023/04/18 08:10:03;;;;;;;10.67;7.03;;;11.50;62.20;;;;;;6145647;23;20167;-73
2023/04/18 08:12:30;;;;;;;9.93;7.70;;;11.70;61.40;;;;;;6191976;23;20616;-75
2023/04/18 08:14:56;;;;;;;9.27;8.10;;;11.80;59.90;;;;;;6201555;23;20393;-74
2023/04/18 08:17:22;;;;;;;14.33;7.27;;;12.00;59.10;;;;;;6200765;23;20366;-73
2023/04/18 08:19:48;;;;;;;11.33;7.73;;;12.20;58.60;;;;;;6178952;23;20258;-73
2023/04/18 08:22:13;;;;;;;8.70;7.30;;;12.30;57.70;;;;;;6203298;23;20354;-75
2023/04/18 08:24:39;;;;;;;9.00;7.67;;;12.50;56.80;;;;;;6204715;23;20127;-74
2023/04/18 08:27:05;;;;;;;9.60;6.70;;;12.70;57.10;;;;;;6198690;23;20149;-74
2023/04/18 08:29:32;;;;;;;6.80;6.10;;;12.70;57.10;;;;;;6199859;23;20393;-75
2023/04/18 08:31:57;;;;;;;7.97;6.80;;;13.00;55.90;;;;;;6201012;23;20416;-75
2023/04/18 08:34:25;;;;;;;8.60;7.60;;;13.00;56.00;;;;;;6203012;23;20390;-75
2023/04/18 08:36:51;;;;;;;9.10;7.27;;;13.20;55.60;;;;;;6199280;23;20138;-73
2023/04/18 08:39:18;;;;;;;8.47;7.30;;;13.40;54.80;;;;;;6198750;23;20473;-74
2023/04/18 08:41:52;;;;;;;9.73;7.57;;;13.50;54.50;;;;;;6200884;23;20385;-76
2023/04/18 08:44:17;;;;;;;8.90;6.70;;;13.40;54.10;;;;;;6201030;23;20135;-74
2023/04/18 08:46:43;;;;;;;8.50;7.07;;;13.30;54.80;;;;;;6199070;23;20374;-73
2023/04/18 08:49:16;;;;;;;11.50;7.77;;;13.20;54.80;;;;;;6197476;23;20543;-75
2023/04/18 08:51:43;;;;;;;8.37;7.00;;;13.30;54.90;;;;;;6197086;23;20143;-74
2023/04/18 08:54:09;;;;;;;11.27;8.13;;;13.30;54.50;;;;;;6199721;23;20357;-76
2023/04/18 08:56:36;;;;;;;8.10;7.03;;;13.30;54.70;;;;;;6149858;23;20388;-76
2023/04/18 08:59:02;;;;;;;8.97;7.27;;;13.20;54.30;;;;;;6174360;23;20403;-73
2023/04/18 09:01:55;;;;;;;8.03;6.80;;;13.10;55.20;;;;;;6200339;23;20362;-73
2023/04/18 09:04:44;;;;;;;10.73;6.77;;;13.00;55.50;;;;;;6199445;23;20387;-74
2023/04/18 09:07:14;;;;;;;7.90;6.90;;;13.00;55.60;;;;;;6198148;23;20420;-75
2023/04/18 09:09:41;;;;;;;9.93;7.17;;;13.00;55.40;;;;;;6197706;23;20691;-76
2023/04/18 09:12:08;;;;;;;9.20;7.10;;;13.10;55.40;;;;;;6200521;23;20414;-74
2023/04/18 09:14:41;;;;;;;9.63;7.47;;;13.10;54.50;;;;;;6200525;23;20402;-74
2023/04/18 09:17:10;;;;;;;7.63;6.70;;;13.10;54.80;;;;;;6202029;23;20605;-75
2023/04/18 09:19:43;;;;;;;9.23;6.40;;;13.10;55.00;;;;;;6200110;23;20874;-75
2023/04/18 09:22:09;;;;;;;9.83;6.77;;;13.10;55.20;;;;;;6200940;23;20359;-77
2023/04/18 09:24:36;;;;;;;10.57;7.10;;;13.10;55.50;;;;;;6200314;23;20416;-75
2023/04/18 09:27:02;;;;;;;12.37;6.50;;;13.20;55.40;;;;;;6199255;23;20817;-74
2023/04/18 09:29:48;;;;;;;9.83;6.30;;;13.30;55.20;;;;;;6199989;23;20437;-75
2023/04/18 09:32:23;;;;;;;8.20;6.30;;;13.40;55.00;;;;;;6200546;23;20392;-76
2023/04/18 09:34:58;;;;;;;7.57;6.47;;;13.70;54.30;;;;;;6176314;23;20374;-75
2023/04/18 09:37:25;;;;;;;10.43;6.30;;;13.70;54.00;;;;;;6201615;23;20675;-76
2023/04/18 09:39:51;;;;;;;7.47;6.00;;;13.80;53.80;;;;;;6199432;23;20424;-74
2023/04/18 09:42:17;;;;;;;7.77;6.20;;;13.90;52.80;;;;;;6201015;23;20699;-77
2023/04/18 09:45:11;;;;;;;7.33;6.23;;;13.90;53.20;;;;;;6203283;23;20353;-78
2023/04/18 09:47:38;;;;;;;9.30;6.43;;;13.90;53.60;;;;;;6203033;23;20405;-77
2023/04/18 09:50:09;;;;;;;8.73;5.80;;;14.10;52.70;;;;;;6199756;23;20433;-78
2023/04/18 09:52:40;;;;;;;6.87;5.90;;;14.20;52.50;;;;;;6198057;23;20381;-75
2023/04/18 09:55:09;;;;;;;6.40;5.30;;;14.30;52.70;;;;;;6202030;23;20362;-78
2023/04/18 09:57:37;;;;;;;7.67;5.20;;;14.50;52.50;;;;;;6178648;23;20401;-75
2023/04/18 10:00:24;;;;;;;7.97;5.87;;;14.30;52.40;;;;;;6202487;23;20675;-78
2023/04/18 10:02:58;;;;;;;9.20;7.00;;;14.50;52.40;;;;;;6175103;23;20401;-75
2023/04/18 10:05:33;;;;;;;9.40;6.30;;;14.80;51.60;;;;;;6178578;23;20646;-78
2023/04/18 10:07:58;;;;;;;8.73;7.70;;;14.90;51.40;;;;;;6206877;23;20400;-76
2023/04/18 10:10:24;;;;;;;6.20;5.60;;;14.90;51.20;;;;;;6184072;23;20425;-77
2023/04/18 10:12:53;;;;;;;7.00;5.97;;;15.00;50.90;;;;;;6207908;23;20181;-77
2023/04/18 10:15:21;;;;;;;6.70;5.50;;;14.90;51.10;;;;;;6184737;23;20377;-78
2023/04/18 10:17:52;;;;;;;7.80;6.40;;;14.90;50.60;;;;;;6182267;23;20425;-77
2023/04/18 10:20:19;;;;;;;9.47;6.47;;;14.80;50.60;;;;;;6183204;23;20462;-78
2023/04/18 10:22:47;;;;;;;6.13;5.00;;;14.50;50.90;;;;;;6181963;23;20377;-76
2023/04/18 10:25:40;;;;;;;5.80;4.90;;;14.50;51.60;;;;;;6123719;23;20379;-77
2023/04/18 10:28:07;;;;;;;5.93;5.30;;;14.60;51.60;;;;;;6145638;23;20423;-76
2023/04/18 10:30:48;;;;;;;6.43;5.40;;;15.00;51.60;;;;;;6145490;23;20878;-76
2023/04/18 10:33:25;;;;;;;6.83;5.70;;;15.20;50.50;;;;;;6125037;23;20390;-77
2023/04/18 10:36:00;;;;;;;8.53;5.90;;;15.40;50.00;;;;;;6178663;23;20450;-78
2023/04/18 10:38:27;;;;;;;7.10;5.80;;;15.30;50.10;;;;;;6130675;23;20398;-77
2023/04/18 10:41:11;;;;;;;6.10;5.37;;;15.30;50.30;;;;;;6151751;23;20422;-78
2023/04/18 10:44:07;;;;;;;7.00;5.87;;;15.60;50.40;;;;;;6145708;23;20402;-77
2023/04/18 10:46:41;;;;;;;6.03;5.40;;;15.90;50.40;;;;;;6122716;23;20402;-77
2023/04/18 10:49:15;;;;;;;6.20;5.33;;;16.20;49.30;;;;;;6154398;23;20437;-76
2023/04/18 10:51:48;;;;;;;7.00;5.03;;;16.30;48.50;;;;;;6152066;23;20383;-77
2023/04/18 10:54:22;;;;;;;8.37;5.87;;;16.20;48.60;;;;;;6176885;23;20394;-77
2023/04/18 10:56:53;;;;;;;6.03;5.30;;;16.10;48.70;;;;;;6189980;23;20400;-77
2023/04/18 10:59:24;;;;;;;5.30;4.80;;;16.10;49.30;;;;;;6202559;23;20397;-77
2023/04/18 11:02:10;;;;;;;5.53;4.37;;;16.10;49.00;;;;;;6198616;23;20377;-77
2023/04/18 11:04:36;;;;;;;8.60;5.83;;;16.20;49.20;;;;;;6206079;23;20417;-77
2023/04/18 11:07:02;;;;;;;7.77;6.23;;;16.40;48.90;;;;;;6182504;23;20695;-76
2023/04/18 11:09:28;;;;;;;8.40;5.60;;;16.40;49.00;;;;;;6199232;23;20429;-74
2023/04/18 11:12:06;;;;;;;8.80;6.60;;;16.50;48.90;;;;;;6217686;23;20570;-77
2023/04/18 11:14:42;;;;;;;6.40;5.53;;;16.30;48.90;;;;;;6183154;23;20139;-77
2023/04/18 11:17:27;;;;;;;7.27;6.30;;;16.20;49.00;;;;;;6237349;23;20352;-77
2023/04/18 11:20:00;;;;;;;7.83;5.13;;;15.90;49.60;;;;;;6187807;23;20441;-78
2023/04/18 11:22:26;;;;;;;9.87;5.83;;;15.80;50.20;;;;;;6187817;23;20381;-79
2023/04/18 11:24:57;;;;;;;8.50;6.03;;;15.90;50.20;;;;;;6188405;23;20376;-78
2023/04/18 11:27:27;;;;;;;8.63;6.10;;;15.90;50.20;;;;;;6185858;23;20369;-78
2023/04/18 11:29:53;;;;;;;8.50;6.37;;;15.90;50.20;;;;;;6211229;23;20432;-77
2023/04/18 11:32:23;;;;;;;7.13;6.03;;;16.00;50.30;;;;;;6205361;23;20370;-77
2023/04/18 11:34:54;;;;;;;6.37;5.40;;;16.10;50.00;;;;;;6181150;23;20369;-78
2023/04/18 11:37:21;;;;;;;6.97;5.80;;;16.00;50.50;;;;;;6209807;23;20361;-77
2023/04/18 11:39:47;;;;;;;8.60;6.90;;;16.10;50.80;;;;;;6206844;23;20399;-79
2023/04/18 11:42:13;;;;;;;7.77;6.03;;;16.50;50.00;;;;;;6209025;23;20364;-78
2023/04/18 11:44:39;;;;;;;7.43;5.87;;;16.60;49.60;;;;;;6209735;23;20153;-77
2023/04/18 11:47:23;;;;;;;6.80;6.10;;;16.50;49.50;;;;;;6232179;23;20177;-76
2023/04/18 11:49:56;;;;;;;6.60;5.63;;;16.60;49.50;;;;;;6177555;23;20186;-75
2023/04/18 11:52:22;;;;;;;6.43;5.77;;;16.50;49.90;;;;;;6231242;23;20371;-78
2023/04/18 11:54:48;;;;;;;6.60;5.93;;;16.40;49.80;;;;;;6183759;23;20384;-77
2023/04/18 11:57:21;;;;;;;6.67;6.07;;;16.40;50.00;;;;;;6208412;23;20421;-77
2023/04/18 11:59:48;;;;;;;6.43;5.80;;;16.30;49.90;;;;;;6206153;23;20170;-77
2023/04/18 12:02:14;;;;;;;7.00;6.30;;;16.40;49.90;;;;;;6206120;23;20377;-78
2023/04/18 12:04:55;;;;;;;7.77;6.03;;;16.40;50.00;;;;;;6207583;23;20378;-76
2023/04/18 12:07:31;;;;;;;7.47;5.40;;;16.40;50.20;;;;;;6180473;23;20207;-76
2023/04/18 12:09:57;;;;;;;6.33;5.03;;;16.40;50.20;;;;;;6206649;23;20515;-76
2023/04/18 12:12:23;;;;;;;9.00;6.60;;;16.40;50.40;;;;;;6183809;23;20401;-79
2023/04/18 12:15:00;;;;;;;6.00;5.40;;;16.50;49.70;;;;;;6183589;23;20433;-79
2023/04/18 12:17:26;;;;;;;5.97;5.43;;;16.50;49.80;;;;;;6186184;23;20148;-77
2023/04/18 12:19:52;;;;;;;10.23;5.63;;;16.50;49.60;;;;;;6210879;23;20396;-78
2023/04/18 12:22:18;;;;;;;7.00;6.30;;;16.50;49.30;;;;;;6184500;23;20408;-77
2023/04/18 12:24:45;;;;;;;6.90;6.10;;;16.60;49.30;;;;;;6208709;23;20369;-80
2023/04/18 12:27:10;;;;;;;6.23;5.63;;;16.70;49.10;;;;;;6210537;23;20134;-78
2023/04/18 12:29:36;;;;;;;6.60;6.00;;;16.80;48.80;;;;;;6239447;23;20422;-78
2023/04/18 12:32:02;;;;;;;7.40;6.60;;;16.80;48.70;;;;;;6208308;23;20135;-77
2023/04/18 12:34:28;;;;;;;7.40;6.63;;;16.70;48.60;;;;;;6183052;23;20158;-77
2023/04/18 12:36:54;;;;;;;7.43;6.23;;;16.60;49.00;;;;;;6207144;23;20158;-76
2023/04/18 12:39:19;;;;;;;6.53;4.70;;;16.50;49.20;;;;;;6232125;23;20173;-77
2023/04/18 12:41:46;;;;;;;8.93;7.13;;;16.60;49.60;;;;;;6183471;23;20199;-78
2023/04/18 12:44:12;;;;;;;6.90;6.07;;;16.80;49.20;;;;;;6236126;23;20145;-77
2023/04/18 12:46:37;;;;;;;6.50;5.70;;;16.90;48.60;;;;;;6209682;23;20384;-78
2023/04/18 12:49:05;;;;;;;7.53;6.73;;;16.90;49.00;;;;;;6207703;23;20385;-77